sensor_id;sensor_type;location;lat;lon;timestamp;temperature;humidity
1778;DHT22;886;50.082;8.222;2022-07-23T00:00:46;23.90;86.90
1778;DHT22;886;50.082;8.222;2022-07-23T00:03:13;23.80;87.00
1778;DHT22;886;50.082;8.222;2022-07-23T00:05:42;23.80;87.30
1778;DHT22;886;50.082;8.222;2022-07-23T00:08:10;23.80;88.10
1778;DHT22;886;50.082;8.222;2022-07-23T00:10:40;23.70;87.90
1778;DHT22;886;50.082;8.222;2022-07-23T00:13:07;23.70;88.10
1778;DHT22;886;50.082;8.222;2022-07-23T00:15:34;23.70;88.40
1778;DHT22;886;50.082;8.222;2022-07-23T00:18:01;23.60;88.60
1778;DHT22;886;50.082;8.222;2022-07-23T00:20:28;23.60;88.80
1778;DHT22;886;50.082;8.222;2022-07-23T00:22:57;23.60;89.10
1778;DHT22;886;50.082;8.222;2022-07-23T00:25:26;23.60;89.40
1778;DHT22;886;50.082;8.222;2022-07-23T00:27:56;23.60;89.60
1778;DHT22;886;50.082;8.222;2022-07-23T00:30:24;23.60;89.70
1778;DHT22;886;50.082;8.222;2022-07-23T00:32:56;23.60;90.00
1778;DHT22;886;50.082;8.222;2022-07-23T00:35:26;23.50;90.20
1778;DHT22;886;50.082;8.222;2022-07-23T00:37:54;23.50;90.40
1778;DHT22;886;50.082;8.222;2022-07-23T00:40:23;23.50;90.50
1778;DHT22;886;50.082;8.222;2022-07-23T00:42:50;23.40;90.60
1778;DHT22;886;50.082;8.222;2022-07-23T00:45:18;23.40;90.80
1778;DHT22;886;50.082;8.222;2022-07-23T00:47:46;23.30;90.80
1778;DHT22;886;50.082;8.222;2022-07-23T00:50:13;23.30;90.90
1778;DHT22;886;50.082;8.222;2022-07-23T00:52:41;23.30;91.00
1778;DHT22;886;50.082;8.222;2022-07-23T00:55:09;23.20;91.00
1778;DHT22;886;50.082;8.222;2022-07-23T00:57:39;23.20;91.10
1778;DHT22;886;50.082;8.222;2022-07-23T01:00:12;23.20;91.20
1778;DHT22;886;50.082;8.222;2022-07-23T01:02:41;23.20;91.40
1778;DHT22;886;50.082;8.222;2022-07-23T01:05:09;23.20;91.50
1778;DHT22;886;50.082;8.222;2022-07-23T01:07:36;23.10;91.70
1778;DHT22;886;50.082;8.222;2022-07-23T01:10:05;23.10;91.80
1778;DHT22;886;50.082;8.222;2022-07-23T01:12:54;23.10;91.90
1778;DHT22;886;50.082;8.222;2022-07-23T01:15:22;23.10;92.00
1778;DHT22;886;50.082;8.222;2022-07-23T01:17:49;23.10;92.40
1778;DHT22;886;50.082;8.222;2022-07-23T01:20:20;23.10;92.30
1778;DHT22;886;50.082;8.222;2022-07-23T01:22:49;23.10;92.60
1778;DHT22;886;50.082;8.222;2022-07-23T01:25:17;23.10;93.00
1778;DHT22;886;50.082;8.222;2022-07-23T01:27:44;22.90;93.20
1778;DHT22;886;50.082;8.222;2022-07-23T01:30:12;22.80;93.70
1778;DHT22;886;50.082;8.222;2022-07-23T01:32:40;22.80;94.20
1778;DHT22;886;50.082;8.222;2022-07-23T01:35:08;22.70;94.40
1778;DHT22;886;50.082;8.222;2022-07-23T01:37:36;22.70;94.80
1778;DHT22;886;50.082;8.222;2022-07-23T01:40:06;22.60;95.00
1778;DHT22;886;50.082;8.222;2022-07-23T01:42:35;22.60;95.10
1778;DHT22;886;50.082;8.222;2022-07-23T01:45:04;22.60;95.40
1778;DHT22;886;50.082;8.222;2022-07-23T01:47:32;22.60;95.50
1778;DHT22;886;50.082;8.222;2022-07-23T01:49:59;22.50;95.60
1778;DHT22;886;50.082;8.222;2022-07-23T01:52:26;22.50;95.70
1778;DHT22;886;50.082;8.222;2022-07-23T01:54:53;22.50;95.70
1778;DHT22;886;50.082;8.222;2022-07-23T01:57:21;22.50;95.80
1778;DHT22;886;50.082;8.222;2022-07-23T01:59:54;22.40;95.80
1778;DHT22;886;50.082;8.222;2022-07-23T02:02:21;22.40;95.90
1778;DHT22;886;50.082;8.222;2022-07-23T02:04:48;22.40;95.90
1778;DHT22;886;50.082;8.222;2022-07-23T02:07:15;22.30;96.10
1778;DHT22;886;50.082;8.222;2022-07-23T02:09:42;22.20;96.20
1778;DHT22;886;50.082;8.222;2022-07-23T02:12:09;22.20;96.30
1778;DHT22;886;50.082;8.222;2022-07-23T02:14:38;22.20;96.50
1778;DHT22;886;50.082;8.222;2022-07-23T02:17:05;22.10;96.60
1778;DHT22;886;50.082;8.222;2022-07-23T02:19:32;22.10;96.80
1778;DHT22;886;50.082;8.222;2022-07-23T02:21:59;22.20;96.70
1778;DHT22;886;50.082;8.222;2022-07-23T02:24:26;22.20;96.80
1778;DHT22;886;50.082;8.222;2022-07-23T02:26:56;22.20;96.90
1778;DHT22;886;50.082;8.222;2022-07-23T02:29:23;22.10;97.00
1778;DHT22;886;50.082;8.222;2022-07-23T02:31:52;22.10;97.10
1778;DHT22;886;50.082;8.222;2022-07-23T02:34:19;22.20;97.10
1778;DHT22;886;50.082;8.222;2022-07-23T02:36:46;22.20;97.00
1778;DHT22;886;50.082;8.222;2022-07-23T02:39:13;22.10;97.10
1778;DHT22;886;50.082;8.222;2022-07-23T02:41:41;22.10;97.20
1778;DHT22;886;50.082;8.222;2022-07-23T02:44:08;22.10;97.20
1778;DHT22;886;50.082;8.222;2022-07-23T02:46:34;22.10;97.30
1778;DHT22;886;50.082;8.222;2022-07-23T02:49:03;22.10;97.30
1778;DHT22;886;50.082;8.222;2022-07-23T02:51:32;22.00;97.40
1778;DHT22;886;50.082;8.222;2022-07-23T02:53:59;22.00;97.60
1778;DHT22;886;50.082;8.222;2022-07-23T02:56:26;21.90;97.60
1778;DHT22;886;50.082;8.222;2022-07-23T02:58:53;21.90;97.70
1778;DHT22;886;50.082;8.222;2022-07-23T03:01:20;21.90;97.80
1778;DHT22;886;50.082;8.222;2022-07-23T03:03:47;21.90;97.60
1778;DHT22;886;50.082;8.222;2022-07-23T03:06:16;21.80;97.80
1778;DHT22;886;50.082;8.222;2022-07-23T03:08:43;21.80;97.80
1778;DHT22;886;50.082;8.222;2022-07-23T03:11:10;21.90;97.80
1778;DHT22;886;50.082;8.222;2022-07-23T03:13:38;21.90;97.70
1778;DHT22;886;50.082;8.222;2022-07-23T03:16:05;21.90;97.60
1778;DHT22;886;50.082;8.222;2022-07-23T03:18:33;21.90;97.60
1778;DHT22;886;50.082;8.222;2022-07-23T03:21:06;21.90;97.60
1778;DHT22;886;50.082;8.222;2022-07-23T03:23:38;21.90;97.40
1778;DHT22;886;50.082;8.222;2022-07-23T03:26:05;22.00;97.30
1778;DHT22;886;50.082;8.222;2022-07-23T03:28:32;22.00;97.00
1778;DHT22;886;50.082;8.222;2022-07-23T03:31:02;22.00;97.00
1778;DHT22;886;50.082;8.222;2022-07-23T03:33:32;22.00;97.00
1778;DHT22;886;50.082;8.222;2022-07-23T03:35:59;22.00;96.90
1778;DHT22;886;50.082;8.222;2022-07-23T03:38:27;22.00;96.90
1778;DHT22;886;50.082;8.222;2022-07-23T03:40:55;22.00;96.90
1778;DHT22;886;50.082;8.222;2022-07-23T03:43:22;21.90;97.20
1778;DHT22;886;50.082;8.222;2022-07-23T03:45:52;21.90;97.50
1778;DHT22;886;50.082;8.222;2022-07-23T03:48:19;21.80;97.70
1778;DHT22;886;50.082;8.222;2022-07-23T03:50:46;21.80;97.70
1778;DHT22;886;50.082;8.222;2022-07-23T03:53:13;21.80;97.80
1778;DHT22;886;50.082;8.222;2022-07-23T03:55:40;21.90;97.80
1778;DHT22;886;50.082;8.222;2022-07-23T03:58:09;21.80;97.80
1778;DHT22;886;50.082;8.222;2022-07-23T04:00:36;21.80;98.00
1778;DHT22;886;50.082;8.222;2022-07-23T04:03:03;21.80;98.10
1778;DHT22;886;50.082;8.222;2022-07-23T04:05:30;21.80;98.10
1778;DHT22;886;50.082;8.222;2022-07-23T04:07:57;21.80;98.10
1778;DHT22;886;50.082;8.222;2022-07-23T04:10:24;21.80;98.10
1778;DHT22;886;50.082;8.222;2022-07-23T04:12:51;21.70;98.10
1778;DHT22;886;50.082;8.222;2022-07-23T04:15:20;21.70;98.20
1778;DHT22;886;50.082;8.222;2022-07-23T04:17:47;21.70;98.30
1778;DHT22;886;50.082;8.222;2022-07-23T04:20:14;21.70;98.30
1778;DHT22;886;50.082;8.222;2022-07-23T04:22:41;21.60;98.60
1778;DHT22;886;50.082;8.222;2022-07-23T04:25:08;21.60;98.40
1778;DHT22;886;50.082;8.222;2022-07-23T04:27:35;21.50;98.40
1778;DHT22;886;50.082;8.222;2022-07-23T04:30:03;21.50;98.50
1778;DHT22;886;50.082;8.222;2022-07-23T04:32:32;21.40;99.00
1778;DHT22;886;50.082;8.222;2022-07-23T04:34:59;21.40;98.70
1778;DHT22;886;50.082;8.222;2022-07-23T04:37:26;21.50;98.80
1778;DHT22;886;50.082;8.222;2022-07-23T04:39:53;21.60;98.70
1778;DHT22;886;50.082;8.222;2022-07-23T04:42:21;21.70;98.60
1778;DHT22;886;50.082;8.222;2022-07-23T04:44:48;21.80;98.50
1778;DHT22;886;50.082;8.222;2022-07-23T04:47:15;21.80;98.20
1778;DHT22;886;50.082;8.222;2022-07-23T04:49:43;21.90;98.30
1778;DHT22;886;50.082;8.222;2022-07-23T04:52:10;21.90;98.10
1778;DHT22;886;50.082;8.222;2022-07-23T04:54:37;22.00;98.00
1778;DHT22;886;50.082;8.222;2022-07-23T04:57:04;22.00;97.90
1778;DHT22;886;50.082;8.222;2022-07-23T04:59:31;22.00;97.90
1778;DHT22;886;50.082;8.222;2022-07-23T05:01:58;22.00;97.90
1778;DHT22;886;50.082;8.222;2022-07-23T05:04:26;22.00;98.20
1778;DHT22;886;50.082;8.222;2022-07-23T05:06:54;22.00;98.00
1778;DHT22;886;50.082;8.222;2022-07-23T05:09:27;21.90;98.20
1778;DHT22;886;50.082;8.222;2022-07-23T05:11:54;21.90;98.10
1778;DHT22;886;50.082;8.222;2022-07-23T05:14:21;22.00;98.10
1778;DHT22;886;50.082;8.222;2022-07-23T05:16:48;22.00;98.00
1778;DHT22;886;50.082;8.222;2022-07-23T05:19:15;22.00;98.00
1778;DHT22;886;50.082;8.222;2022-07-23T05:21:43;22.00;97.90
1778;DHT22;886;50.082;8.222;2022-07-23T05:24:11;22.10;97.90
1778;DHT22;886;50.082;8.222;2022-07-23T05:26:38;22.10;97.90
1778;DHT22;886;50.082;8.222;2022-07-23T05:29:06;22.10;98.10
1778;DHT22;886;50.082;8.222;2022-07-23T05:31:34;22.20;97.50
1778;DHT22;886;50.082;8.222;2022-07-23T05:34:01;22.10;97.40
1778;DHT22;886;50.082;8.222;2022-07-23T05:36:28;22.10;97.50
1778;DHT22;886;50.082;8.222;2022-07-23T05:38:55;22.10;97.50
1778;DHT22;886;50.082;8.222;2022-07-23T05:41:24;22.10;97.70
1778;DHT22;886;50.082;8.222;2022-07-23T05:43:51;22.10;97.60
1778;DHT22;886;50.082;8.222;2022-07-23T05:46:18;22.00;97.50
1778;DHT22;886;50.082;8.222;2022-07-23T05:48:45;22.00;97.60
1778;DHT22;886;50.082;8.222;2022-07-23T05:51:19;22.10;97.50
1778;DHT22;886;50.082;8.222;2022-07-23T05:53:47;22.20;97.10
1778;DHT22;886;50.082;8.222;2022-07-23T05:56:15;22.20;97.00
1778;DHT22;886;50.082;8.222;2022-07-23T05:58:44;22.20;96.70
1778;DHT22;886;50.082;8.222;2022-07-23T06:01:11;22.20;96.30
1778;DHT22;886;50.082;8.222;2022-07-23T06:03:38;22.20;96.60
1778;DHT22;886;50.082;8.222;2022-07-23T06:06:06;22.20;96.70
1778;DHT22;886;50.082;8.222;2022-07-23T06:08:34;22.40;96.70
1778;DHT22;886;50.082;8.222;2022-07-23T06:11:01;22.50;96.50
1778;DHT22;886;50.082;8.222;2022-07-23T06:13:29;22.50;96.10
1778;DHT22;886;50.082;8.222;2022-07-23T06:15:57;22.50;96.10
1778;DHT22;886;50.082;8.222;2022-07-23T06:18:24;22.50;95.80
1778;DHT22;886;50.082;8.222;2022-07-23T06:20:51;22.60;95.30
1778;DHT22;886;50.082;8.222;2022-07-23T06:23:25;22.60;95.10
1778;DHT22;886;50.082;8.222;2022-07-23T06:25:53;22.70;94.80
1778;DHT22;886;50.082;8.222;2022-07-23T06:28:20;22.80;95.00
1778;DHT22;886;50.082;8.222;2022-07-23T06:30:47;22.70;94.90
1778;DHT22;886;50.082;8.222;2022-07-23T06:33:20;22.80;94.90
1778;DHT22;886;50.082;8.222;2022-07-23T06:35:50;22.90;94.10
1778;DHT22;886;50.082;8.222;2022-07-23T06:38:17;23.00;94.00
1778;DHT22;886;50.082;8.222;2022-07-23T06:40:45;23.20;93.80
1778;DHT22;886;50.082;8.222;2022-07-23T06:43:12;23.20;93.00
1778;DHT22;886;50.082;8.222;2022-07-23T06:45:41;23.20;92.70
1778;DHT22;886;50.082;8.222;2022-07-23T06:48:09;23.20;92.80
1778;DHT22;886;50.082;8.222;2022-07-23T06:50:42;23.30;92.80
1778;DHT22;886;50.082;8.222;2022-07-23T06:53:12;23.40;92.80
1778;DHT22;886;50.082;8.222;2022-07-23T06:55:39;23.30;92.80
1778;DHT22;886;50.082;8.222;2022-07-23T06:58:07;23.50;92.50
1778;DHT22;886;50.082;8.222;2022-07-23T07:00:35;23.70;91.60
1778;DHT22;886;50.082;8.222;2022-07-23T07:03:03;23.70;91.50
1778;DHT22;886;50.082;8.222;2022-07-23T07:05:30;23.70;92.10
1778;DHT22;886;50.082;8.222;2022-07-23T07:07:59;23.80;91.90
1778;DHT22;886;50.082;8.222;2022-07-23T07:10:26;23.90;92.00
1778;DHT22;886;50.082;8.222;2022-07-23T07:12:53;24.00;92.10
1778;DHT22;886;50.082;8.222;2022-07-23T07:15:20;24.40;91.20
1778;DHT22;886;50.082;8.222;2022-07-23T07:17:47;24.70;91.30
1778;DHT22;886;50.082;8.222;2022-07-23T07:20:15;25.00;90.80
1778;DHT22;886;50.082;8.222;2022-07-23T07:22:42;25.20;90.20
1778;DHT22;886;50.082;8.222;2022-07-23T07:25:10;25.50;89.30
1778;DHT22;886;50.082;8.222;2022-07-23T07:27:40;26.00;88.20
1778;DHT22;886;50.082;8.222;2022-07-23T07:30:10;26.30;86.60
1778;DHT22;886;50.082;8.222;2022-07-23T07:32:38;26.70;85.50
1778;DHT22;886;50.082;8.222;2022-07-23T07:35:22;26.80;84.80
1778;DHT22;886;50.082;8.222;2022-07-23T07:37:49;26.60;82.20
1778;DHT22;886;50.082;8.222;2022-07-23T07:40:18;26.40;84.30
1778;DHT22;886;50.082;8.222;2022-07-23T07:42:46;26.10;84.80
1778;DHT22;886;50.082;8.222;2022-07-23T07:45:13;25.80;84.40
1778;DHT22;886;50.082;8.222;2022-07-23T07:47:40;25.60;84.30
1778;DHT22;886;50.082;8.222;2022-07-23T07:50:08;25.50;84.20
1778;DHT22;886;50.082;8.222;2022-07-23T07:52:36;25.40;81.70
1778;DHT22;886;50.082;8.222;2022-07-23T07:55:06;25.40;81.60
1778;DHT22;886;50.082;8.222;2022-07-23T07:57:36;25.40;81.10
1778;DHT22;886;50.082;8.222;2022-07-23T08:00:05;25.40;82.20
1778;DHT22;886;50.082;8.222;2022-07-23T08:02:40;25.40;81.90
1778;DHT22;886;50.082;8.222;2022-07-23T08:05:09;25.40;81.90
1778;DHT22;886;50.082;8.222;2022-07-23T08:07:37;25.40;79.30
1778;DHT22;886;50.082;8.222;2022-07-23T08:10:07;25.40;78.80
1778;DHT22;886;50.082;8.222;2022-07-23T08:12:40;25.40;78.90
1778;DHT22;886;50.082;8.222;2022-07-23T08:15:09;25.40;79.10
1778;DHT22;886;50.082;8.222;2022-07-23T08:17:40;25.40;78.60
1778;DHT22;886;50.082;8.222;2022-07-23T08:20:08;25.50;77.10
1778;DHT22;886;50.082;8.222;2022-07-23T08:22:44;25.60;76.80
1778;DHT22;886;50.082;8.222;2022-07-23T08:25:13;25.70;76.30
1778;DHT22;886;50.082;8.222;2022-07-23T08:27:42;25.90;76.90
1778;DHT22;886;50.082;8.222;2022-07-23T08:30:09;26.30;75.50
1778;DHT22;886;50.082;8.222;2022-07-23T08:32:54;26.50;73.20
1778;DHT22;886;50.082;8.222;2022-07-23T08:35:25;26.60;73.00
1778;DHT22;886;50.082;8.222;2022-07-23T08:37:53;26.70;73.20
1778;DHT22;886;50.082;8.222;2022-07-23T08:40:21;26.60;74.10
1778;DHT22;886;50.082;8.222;2022-07-23T08:42:50;26.60;74.30
1778;DHT22;886;50.082;8.222;2022-07-23T08:45:19;26.60;71.30
1778;DHT22;886;50.082;8.222;2022-07-23T08:47:51;26.40;71.30
1778;DHT22;886;50.082;8.222;2022-07-23T08:50:20;26.30;70.70
1778;DHT22;886;50.082;8.222;2022-07-23T08:52:48;26.20;70.30
1778;DHT22;886;50.082;8.222;2022-07-23T08:55:16;26.20;71.40
1778;DHT22;886;50.082;8.222;2022-07-23T08:57:44;26.20;72.50
1778;DHT22;886;50.082;8.222;2022-07-23T09:00:16;26.10;72.50
1778;DHT22;886;50.082;8.222;2022-07-23T09:02:45;26.00;72.90
1778;DHT22;886;50.082;8.222;2022-07-23T09:05:14;26.00;72.90
1778;DHT22;886;50.082;8.222;2022-07-23T09:08:03;25.90;73.40
1778;DHT22;886;50.082;8.222;2022-07-23T09:10:58;25.80;73.80
1778;DHT22;886;50.082;8.222;2022-07-23T09:13:31;25.80;73.90
1778;DHT22;886;50.082;8.222;2022-07-23T09:16:03;25.80;74.20
1778;DHT22;886;50.082;8.222;2022-07-23T09:18:38;25.90;74.80
1778;DHT22;886;50.082;8.222;2022-07-23T09:21:18;25.90;75.60
1778;DHT22;886;50.082;8.222;2022-07-23T09:23:50;26.00;76.70
1778;DHT22;886;50.082;8.222;2022-07-23T09:26:32;26.10;76.70
1778;DHT22;886;50.082;8.222;2022-07-23T09:29:06;26.20;76.50
1778;DHT22;886;50.082;8.222;2022-07-23T09:31:48;26.20;76.20
1778;DHT22;886;50.082;8.222;2022-07-23T09:34:20;26.10;75.40
1778;DHT22;886;50.082;8.222;2022-07-23T09:36:50;26.10;76.40
1778;DHT22;886;50.082;8.222;2022-07-23T09:39:25;26.10;76.40
1778;DHT22;886;50.082;8.222;2022-07-23T09:41:54;26.20;75.90
1778;DHT22;886;50.082;8.222;2022-07-23T09:44:22;26.20;76.20
1778;DHT22;886;50.082;8.222;2022-07-23T09:46:58;26.20;76.80
1778;DHT22;886;50.082;8.222;2022-07-23T09:49:27;26.20;77.20
1778;DHT22;886;50.082;8.222;2022-07-23T09:51:57;26.30;76.30
1778;DHT22;886;50.082;8.222;2022-07-23T09:54:28;26.40;75.80
1778;DHT22;886;50.082;8.222;2022-07-23T09:57:05;26.40;76.30
1778;DHT22;886;50.082;8.222;2022-07-23T09:59:36;26.40;74.50
1778;DHT22;886;50.082;8.222;2022-07-23T10:02:09;26.40;74.70
1778;DHT22;886;50.082;8.222;2022-07-23T10:04:39;26.40;74.90
1778;DHT22;886;50.082;8.222;2022-07-23T10:07:07;26.40;73.30
1778;DHT22;886;50.082;8.222;2022-07-23T10:09:39;26.50;72.40
1778;DHT22;886;50.082;8.222;2022-07-23T10:12:10;26.40;72.40
1778;DHT22;886;50.082;8.222;2022-07-23T10:14:53;26.50;72.20
1778;DHT22;886;50.082;8.222;2022-07-23T10:17:22;26.60;71.60
1778;DHT22;886;50.082;8.222;2022-07-23T10:19:49;26.60;70.30
1778;DHT22;886;50.082;8.222;2022-07-23T10:22:20;26.50;71.40
1778;DHT22;886;50.082;8.222;2022-07-23T10:24:53;26.50;71.10
1778;DHT22;886;50.082;8.222;2022-07-23T10:27:51;26.60;70.80
1778;DHT22;886;50.082;8.222;2022-07-23T10:30:32;26.70;71.70
1778;DHT22;886;50.082;8.222;2022-07-23T10:33:17;26.80;72.10
1778;DHT22;886;50.082;8.222;2022-07-23T10:35:56;26.80;71.10
1778;DHT22;886;50.082;8.222;2022-07-23T10:38:30;26.80;71.20
1778;DHT22;886;50.082;8.222;2022-07-23T10:41:04;26.80;71.60
1778;DHT22;886;50.082;8.222;2022-07-23T10:43:31;26.80;70.30
1778;DHT22;886;50.082;8.222;2022-07-23T10:46:23;26.90;71.00
1778;DHT22;886;50.082;8.222;2022-07-23T10:49:26;26.90;70.50
1778;DHT22;886;50.082;8.222;2022-07-23T10:52:15;26.90;70.10
1778;DHT22;886;50.082;8.222;2022-07-23T10:54:47;27.00;70.30
1778;DHT22;886;50.082;8.222;2022-07-23T10:57:18;27.00;70.20
1778;DHT22;886;50.082;8.222;2022-07-23T11:00:15;27.00;70.10
1778;DHT22;886;50.082;8.222;2022-07-23T11:02:45;27.10;69.50
1778;DHT22;886;50.082;8.222;2022-07-23T11:05:17;27.00;69.50
1778;DHT22;886;50.082;8.222;2022-07-23T11:10:53;27.00;68.80
1778;DHT22;886;50.082;8.222;2022-07-23T11:13:35;27.10;69.60
1778;DHT22;886;50.082;8.222;2022-07-23T11:16:07;27.10;69.30
1778;DHT22;886;50.082;8.222;2022-07-23T11:19:11;27.20;69.00
1778;DHT22;886;50.082;8.222;2022-07-23T11:21:50;27.20;70.90
1778;DHT22;886;50.082;8.222;2022-07-23T11:24:22;27.30;70.70
1778;DHT22;886;50.082;8.222;2022-07-23T11:27:03;27.40;70.60
1778;DHT22;886;50.082;8.222;2022-07-23T11:29:47;27.50;70.00
1778;DHT22;886;50.082;8.222;2022-07-23T11:32:29;27.60;69.90
1778;DHT22;886;50.082;8.222;2022-07-23T11:34:59;27.60;69.00
1778;DHT22;886;50.082;8.222;2022-07-23T11:37:35;27.60;70.00
1778;DHT22;886;50.082;8.222;2022-07-23T11:40:07;27.50;70.40
1778;DHT22;886;50.082;8.222;2022-07-23T11:42:38;27.60;70.30
1778;DHT22;886;50.082;8.222;2022-07-23T11:45:09;27.60;70.00
1778;DHT22;886;50.082;8.222;2022-07-23T11:47:36;27.60;70.00
1778;DHT22;886;50.082;8.222;2022-07-23T11:50:06;27.60;69.80
1778;DHT22;886;50.082;8.222;2022-07-23T11:52:35;27.70;69.80
1778;DHT22;886;50.082;8.222;2022-07-23T11:55:05;27.80;70.30
1778;DHT22;886;50.082;8.222;2022-07-23T11:57:34;27.80;70.10
1778;DHT22;886;50.082;8.222;2022-07-23T12:00:06;27.70;69.70
1778;DHT22;886;50.082;8.222;2022-07-23T12:02:38;27.70;69.90
1778;DHT22;886;50.082;8.222;2022-07-23T12:05:06;27.60;70.20
1778;DHT22;886;50.082;8.222;2022-07-23T12:07:38;27.40;70.40
1778;DHT22;886;50.082;8.222;2022-07-23T12:10:16;27.40;71.20
1778;DHT22;886;50.082;8.222;2022-07-23T12:12:47;27.50;71.90
1778;DHT22;886;50.082;8.222;2022-07-23T12:15:20;27.60;71.50
1778;DHT22;886;50.082;8.222;2022-07-23T12:17:50;27.60;71.20
1778;DHT22;886;50.082;8.222;2022-07-23T12:20:24;27.60;71.70
1778;DHT22;886;50.082;8.222;2022-07-23T12:22:56;27.70;71.30
1778;DHT22;886;50.082;8.222;2022-07-23T12:25:27;27.70;71.00
1778;DHT22;886;50.082;8.222;2022-07-23T12:28:02;27.80;71.00
1778;DHT22;886;50.082;8.222;2022-07-23T12:30:34;27.80;70.70
1778;DHT22;886;50.082;8.222;2022-07-23T12:33:04;27.80;69.70
1778;DHT22;886;50.082;8.222;2022-07-23T12:35:35;27.80;69.60
1778;DHT22;886;50.082;8.222;2022-07-23T12:38:07;27.90;70.10
1778;DHT22;886;50.082;8.222;2022-07-23T12:40:37;27.80;68.90
1778;DHT22;886;50.082;8.222;2022-07-23T12:43:11;27.80;69.70
1778;DHT22;886;50.082;8.222;2022-07-23T12:45:47;27.80;70.00
1778;DHT22;886;50.082;8.222;2022-07-23T12:48:19;27.70;69.10
1778;DHT22;886;50.082;8.222;2022-07-23T12:50:53;27.70;68.50
1778;DHT22;886;50.082;8.222;2022-07-23T12:53:28;27.70;68.30
1778;DHT22;886;50.082;8.222;2022-07-23T12:56:05;27.80;68.30
1778;DHT22;886;50.082;8.222;2022-07-23T12:58:46;27.80;68.20
1778;DHT22;886;50.082;8.222;2022-07-23T13:01:27;27.80;69.30
1778;DHT22;886;50.082;8.222;2022-07-23T13:04:01;27.80;68.30
1778;DHT22;886;50.082;8.222;2022-07-23T13:06:41;27.80;68.60
1778;DHT22;886;50.082;8.222;2022-07-23T13:09:13;27.80;69.30
1778;DHT22;886;50.082;8.222;2022-07-23T13:11:43;28.00;68.70
1778;DHT22;886;50.082;8.222;2022-07-23T13:14:13;28.00;68.30
1778;DHT22;886;50.082;8.222;2022-07-23T13:16:41;28.00;67.20
1778;DHT22;886;50.082;8.222;2022-07-23T13:19:11;28.00;67.60
1778;DHT22;886;50.082;8.222;2022-07-23T13:21:41;28.00;68.00
1778;DHT22;886;50.082;8.222;2022-07-23T13:24:13;28.10;68.20
1778;DHT22;886;50.082;8.222;2022-07-23T13:26:41;28.00;67.00
1778;DHT22;886;50.082;8.222;2022-07-23T13:29:09;27.90;67.00
1778;DHT22;886;50.082;8.222;2022-07-23T13:31:38;28.00;66.80
1778;DHT22;886;50.082;8.222;2022-07-23T13:34:06;28.10;67.00
1778;DHT22;886;50.082;8.222;2022-07-23T13:36:34;28.20;67.10
1778;DHT22;886;50.082;8.222;2022-07-23T13:39:05;28.20;66.60
1778;DHT22;886;50.082;8.222;2022-07-23T13:41:37;28.20;66.60
1778;DHT22;886;50.082;8.222;2022-07-23T13:44:04;28.20;66.50
1778;DHT22;886;50.082;8.222;2022-07-23T13:46:33;28.10;66.60
1778;DHT22;886;50.082;8.222;2022-07-23T13:49:01;28.10;65.80
1778;DHT22;886;50.082;8.222;2022-07-23T13:51:29;28.00;66.00
1778;DHT22;886;50.082;8.222;2022-07-23T13:53:56;27.90;66.10
1778;DHT22;886;50.082;8.222;2022-07-23T13:56:26;27.90;66.70
1778;DHT22;886;50.082;8.222;2022-07-23T13:58:54;27.90;66.80
1778;DHT22;886;50.082;8.222;2022-07-23T14:01:23;28.00;66.00
1778;DHT22;886;50.082;8.222;2022-07-23T14:03:51;28.00;65.60
1778;DHT22;886;50.082;8.222;2022-07-23T14:06:18;28.00;65.10
1778;DHT22;886;50.082;8.222;2022-07-23T14:09:02;28.00;65.10
1778;DHT22;886;50.082;8.222;2022-07-23T14:11:33;28.10;65.10
1778;DHT22;886;50.082;8.222;2022-07-23T14:14:01;28.10;64.60
1778;DHT22;886;50.082;8.222;2022-07-23T14:16:28;28.20;64.40
1778;DHT22;886;50.082;8.222;2022-07-23T14:18:59;28.20;63.90
1778;DHT22;886;50.082;8.222;2022-07-23T14:21:27;28.20;62.90
1778;DHT22;886;50.082;8.222;2022-07-23T14:23:54;28.20;63.50
1778;DHT22;886;50.082;8.222;2022-07-23T14:26:21;28.10;63.40
1778;DHT22;886;50.082;8.222;2022-07-23T14:28:48;28.20;63.40
1778;DHT22;886;50.082;8.222;2022-07-23T14:31:20;28.20;63.70
1778;DHT22;886;50.082;8.222;2022-07-23T14:33:47;28.20;63.60
1778;DHT22;886;50.082;8.222;2022-07-23T14:36:15;28.30;64.00
1778;DHT22;886;50.082;8.222;2022-07-23T14:38:42;28.30;63.60
1778;DHT22;886;50.082;8.222;2022-07-23T14:41:09;28.40;63.00
1778;DHT22;886;50.082;8.222;2022-07-23T14:43:47;28.50;62.60
1778;DHT22;886;50.082;8.222;2022-07-23T14:46:15;28.50;61.70
1778;DHT22;886;50.082;8.222;2022-07-23T14:48:45;28.50;60.90
1778;DHT22;886;50.082;8.222;2022-07-23T14:51:13;28.40;60.40
1778;DHT22;886;50.082;8.222;2022-07-23T14:53:40;28.40;59.60
1778;DHT22;886;50.082;8.222;2022-07-23T14:56:07;28.30;60.60
1778;DHT22;886;50.082;8.222;2022-07-23T14:58:34;28.30;59.30
1778;DHT22;886;50.082;8.222;2022-07-23T15:01:03;28.30;58.90
1778;DHT22;886;50.082;8.222;2022-07-23T15:03:33;28.30;58.60
1778;DHT22;886;50.082;8.222;2022-07-23T15:06:10;28.30;59.30
1778;DHT22;886;50.082;8.222;2022-07-23T15:08:40;28.20;59.10
1778;DHT22;886;50.082;8.222;2022-07-23T15:11:07;28.30;59.60
1778;DHT22;886;50.082;8.222;2022-07-23T15:13:38;28.30;59.50
1778;DHT22;886;50.082;8.222;2022-07-23T15:16:06;28.30;60.00
1778;DHT22;886;50.082;8.222;2022-07-23T15:18:36;28.30;60.60
1778;DHT22;886;50.082;8.222;2022-07-23T15:21:04;28.30;59.70
1778;DHT22;886;50.082;8.222;2022-07-23T15:23:33;28.30;60.50
1778;DHT22;886;50.082;8.222;2022-07-23T15:26:01;28.30;59.60
1778;DHT22;886;50.082;8.222;2022-07-23T15:28:29;28.30;59.10
1778;DHT22;886;50.082;8.222;2022-07-23T15:30:56;28.30;59.00
1778;DHT22;886;50.082;8.222;2022-07-23T15:33:24;28.30;58.40
1778;DHT22;886;50.082;8.222;2022-07-23T15:35:52;28.30;58.30
1778;DHT22;886;50.082;8.222;2022-07-23T15:38:22;28.30;59.90
1778;DHT22;886;50.082;8.222;2022-07-23T15:40:53;28.30;59.30
1778;DHT22;886;50.082;8.222;2022-07-23T15:43:22;28.20;59.70
1778;DHT22;886;50.082;8.222;2022-07-23T15:45:52;28.20;60.00
1778;DHT22;886;50.082;8.222;2022-07-23T15:48:20;28.20;59.00
1778;DHT22;886;50.082;8.222;2022-07-23T15:50:48;28.20;59.10
1778;DHT22;886;50.082;8.222;2022-07-23T15:53:19;28.20;59.70
1778;DHT22;886;50.082;8.222;2022-07-23T15:56:05;28.10;60.50
1778;DHT22;886;50.082;8.222;2022-07-23T15:58:41;28.10;60.80
1778;DHT22;886;50.082;8.222;2022-07-23T16:01:10;28.10;60.00
1778;DHT22;886;50.082;8.222;2022-07-23T16:03:39;28.10;61.20
1778;DHT22;886;50.082;8.222;2022-07-23T16:06:07;28.10;61.30
1778;DHT22;886;50.082;8.222;2022-07-23T16:08:44;28.10;61.70
1778;DHT22;886;50.082;8.222;2022-07-23T16:11:13;28.20;61.60
1778;DHT22;886;50.082;8.222;2022-07-23T16:13:41;28.20;60.60
1778;DHT22;886;50.082;8.222;2022-07-23T16:16:09;28.10;61.00
1778;DHT22;886;50.082;8.222;2022-07-23T16:18:37;28.10;60.90
1778;DHT22;886;50.082;8.222;2022-07-23T16:21:05;28.10;61.20
1778;DHT22;886;50.082;8.222;2022-07-23T16:23:41;28.10;60.50
1778;DHT22;886;50.082;8.222;2022-07-23T16:26:09;28.10;60.40
1778;DHT22;886;50.082;8.222;2022-07-23T16:28:37;28.10;60.00
1778;DHT22;886;50.082;8.222;2022-07-23T16:31:05;28.10;59.60
1778;DHT22;886;50.082;8.222;2022-07-23T16:33:33;28.10;59.40
1778;DHT22;886;50.082;8.222;2022-07-23T16:36:01;28.10;59.90
1778;DHT22;886;50.082;8.222;2022-07-23T16:38:28;28.10;59.80